Time;durP1;ratioP1;P1;durP2;ratioP2;P2;SDS_P1;SDS_P2;PMS_P1;PMS_P2;Temp;Humidity;BMP_temperature;BMP_pressure;BME280_temperature;BME280_humidity;BME280_pressure;Samples;Min_cycle;Max_cycle;Signal;HPM_P1;HPM_P2
2023/03/31 00:00:33;;;;;;;10.67;1.80;;;10.90;99.90;;;;;;5012177;28;20034;-57
2023/03/31 00:02:59;;;;;;;6.90;1.87;;;10.90;99.90;;;;;;5012116;28;20498;-58
2023/03/31 00:05:25;;;;;;;7.03;1.53;;;10.90;99.90;;;;;;5011778;28;20033;-57
2023/03/31 00:08:00;;;;;;;5.27;1.40;;;10.80;99.90;;;;;;5011939;28;20121;-55
2023/03/31 00:10:33;;;;;;;8.43;1.73;;;10.80;99.90;;;;;;5012262;28;20056;-56
2023/03/31 00:13:02;;;;;;;7.67;1.60;;;10.80;99.90;;;;;;5012044;28;20050;-57
2023/03/31 00:15:27;;;;;;;;;;;10.80;99.90;;;;;;5012375;28;20037;-57
2023/03/31 00:17:53;;;;;;;9.40;1.90;;;10.80;99.90;;;;;;5010605;28;19935;-56
2023/03/31 00:20:19;;;;;;;8.63;1.60;;;10.80;99.90;;;;;;5011746;28;20033;-57
2023/03/31 00:22:45;;;;;;;6.50;1.93;;;10.90;99.90;;;;;;5011818;28;20185;-56
2023/03/31 00:25:14;;;;;;;11.67;1.63;;;10.90;99.90;;;;;;5012025;28;20452;-58
2023/03/31 00:27:44;;;;;;;9.50;1.50;;;10.90;99.90;;;;;;5011778;28;20551;-56
2023/03/31 00:30:12;;;;;;;5.33;1.27;;;10.90;99.90;;;;;;5011730;28;20087;-57
2023/03/31 00:32:38;;;;;;;6.47;1.20;;;10.80;99.90;;;;;;5011659;28;20083;-56
2023/03/31 00:35:04;;;;;;;9.60;1.90;;;10.80;99.90;;;;;;5011162;28;20049;-56
2023/03/31 00:37:30;;;;;;;7.20;1.47;;;10.80;99.90;;;;;;5010193;28;20525;-56
2023/03/31 00:39:55;;;;;;;7.73;1.40;;;10.80;99.90;;;;;;5011640;28;20045;-56
2023/03/31 00:42:22;;;;;;;6.97;1.33;;;10.80;99.90;;;;;;5011752;28;20034;-57
2023/03/31 00:45:12;;;;;;;6.07;1.40;;;10.80;99.90;;;;;;5011246;28;20025;-56
2023/03/31 00:47:42;;;;;;;11.83;2.00;;;10.80;99.90;;;;;;5011194;28;20026;-55
2023/03/31 00:50:25;;;;;;;7.47;1.50;;;10.80;99.90;;;;;;5011354;28;20030;-56
2023/03/31 00:53:07;;;;;;;8.40;1.47;;;10.80;99.90;;;;;;5010069;28;20513;-57
2023/03/31 00:55:40;;;;;;;6.43;1.70;;;10.80;99.90;;;;;;5011136;28;20025;-56
2023/03/31 00:58:06;;;;;;;8.83;1.50;;;10.80;99.90;;;;;;5010808;28;20037;-57
2023/03/31 01:00:32;;;;;;;7.40;1.57;;;10.70;99.90;;;;;;5011130;28;20456;-57
2023/03/31 01:03:04;;;;;;;7.90;1.40;;;10.60;99.90;;;;;;5011153;28;20033;-56
2023/03/31 01:05:46;;;;;;;8.13;1.50;;;10.60;99.90;;;;;;5009557;28;20034;-55
2023/03/31 01:08:13;;;;;;;8.67;1.50;;;10.50;99.90;;;;;;5010976;28;20033;-56
2023/03/31 01:10:46;;;;;;;8.03;1.73;;;10.40;99.90;;;;;;5010944;28;20070;-57
2023/03/31 01:13:14;;;;;;;7.27;2.00;;;10.40;99.90;;;;;;5010997;28;20461;-58
2023/03/31 01:15:41;;;;;;;8.60;1.80;;;10.40;99.90;;;;;;5010767;28;20101;-57
2023/03/31 01:18:09;;;;;;;8.83;1.53;;;10.30;99.90;;;;;;5010410;28;20030;-56
2023/03/31 01:20:44;;;;;;;10.88;1.80;;;10.30;99.90;;;;;;5010864;28;20036;-57
2023/03/31 01:23:47;;;;;;;11.50;2.50;;;10.30;99.90;;;;;;5009732;28;20028;-56
2023/03/31 01:26:43;;;;;;;12.57;2.13;;;10.30;99.90;;;;;;5010887;28;20025;-58
2023/03/31 01:29:46;;;;;;;7.23;1.60;;;10.20;99.90;;;;;;5010825;28;20309;-57
2023/03/31 01:32:45;;;;;;;12.10;1.90;;;10.20;99.90;;;;;;4960657;28;20042;-56
2023/03/31 01:35:28;;;;;;;10.85;2.17;;;10.20;99.90;;;;;;5010583;28;20033;-57
2023/03/31 01:38:40;;;;;;;9.43;1.80;;;10.20;99.90;;;;;;5010560;28;20375;-58
2023/03/31 01:41:26;;;;;;;9.63;2.03;;;10.10;99.90;;;;;;5009390;28;20509;-56
2023/03/31 01:44:01;;;;;;;8.50;1.60;;;10.10;99.90;;;;;;5010248;28;20026;-56
2023/03/31 01:46:32;;;;;;;21.33;2.10;;;10.10;99.90;;;;;;5010478;28;20030;-57
2023/03/31 01:49:34;;;;;;;7.53;2.10;;;10.20;99.90;;;;;;5010712;28;20107;-55
2023/03/31 01:52:07;;;;;;;9.20;1.93;;;10.20;99.90;;;;;;5011960;28;20049;-57
2023/03/31 01:54:54;;;;;;;6.40;1.50;;;10.20;99.90;;;;;;5014414;28;20034;-55
2023/03/31 01:57:33;;;;;;;8.23;1.50;;;10.20;99.90;;;;;;5013178;28;20029;-53
2023/03/31 02:00:03;;;;;;;7.57;1.40;;;10.30;99.90;;;;;;5014428;28;20076;-57
2023/03/31 02:02:46;;;;;;;9.85;2.22;;;10.30;99.90;;;;;;5014539;28;20042;-56
2023/03/31 02:05:17;;;;;;;8.80;1.70;;;10.30;99.90;;;;;;5014252;28;20053;-56
2023/03/31 02:07:51;;;;;;;10.30;2.53;;;10.30;99.90;;;;;;5013151;28;20033;-53
2023/03/31 02:10:18;;;;;;;10.77;2.50;;;10.30;99.90;;;;;;5014525;28;20533;-53
2023/03/31 02:12:45;;;;;;;9.87;1.60;;;10.30;99.90;;;;;;5013067;28;20402;-54
2023/03/31 02:15:17;;;;;;;11.20;1.87;;;10.20;99.90;;;;;;5013797;28;20092;-57
2023/03/31 02:17:46;;;;;;;11.00;2.10;;;10.30;99.90;;;;;;5014052;28;20433;-55
2023/03/31 02:20:14;;;;;;;8.97;1.77;;;10.20;99.90;;;;;;5014076;28;20033;-56
2023/03/31 02:22:44;;;;;;;8.23;1.80;;;10.30;99.90;;;;;;5014355;28;20052;-55
2023/03/31 02:25:11;;;;;;;;;;;10.30;99.90;;;;;;5013194;28;20497;-56
2023/03/31 02:27:41;;;;;;;13.30;2.23;;;10.30;99.90;;;;;;5012550;28;20343;-58
2023/03/31 02:30:10;;;;;;;13.80;2.10;;;10.30;99.90;;;;;;5012675;28;20026;-56
2023/03/31 02:32:40;;;;;;;8.80;1.30;;;10.30;99.90;;;;;;5014137;28;20456;-57
2023/03/31 02:35:09;;;;;;;8.47;1.83;;;10.40;99.90;;;;;;4995918;28;20029;-58
2023/03/31 02:37:35;;;;;;;11.43;1.80;;;10.40;99.90;;;;;;5013713;28;20026;-58
2023/03/31 02:40:09;;;;;;;9.57;1.63;;;10.40;99.90;;;;;;5012377;28;20037;-56
2023/03/31 02:42:37;;;;;;;14.37;2.13;;;10.40;99.90;;;;;;5012515;28;20372;-56
2023/03/31 02:45:05;;;;;;;11.43;2.33;;;10.40;99.90;;;;;;5012142;28;20045;-58
2023/03/31 02:47:32;;;;;;;10.37;2.23;;;10.50;99.90;;;;;;5013726;28;20058;-58
2023/03/31 02:50:01;;;;;;;12.07;2.33;;;10.50;99.90;;;;;;5012346;28;20451;-56
2023/03/31 02:52:42;;;;;;;10.80;2.00;;;10.50;99.90;;;;;;5014103;28;20393;-57
2023/03/31 02:55:16;;;;;;;10.10;1.90;;;10.40;99.90;;;;;;5012035;28;20029;-57
2023/03/31 02:57:54;;;;;;;15.97;2.33;;;10.40;99.90;;;;;;4995672;28;20478;-57
2023/03/31 03:00:43;;;;;;;16.83;2.17;;;10.50;99.90;;;;;;5011992;28;20029;-57
2023/03/31 03:03:15;;;;;;;13.20;2.63;;;10.50;99.90;;;;;;5012214;28;20030;-57
2023/03/31 03:05:57;;;;;;;10.30;1.93;;;10.50;99.90;;;;;;5011827;28;20441;-57
2023/03/31 03:09:22;;;;;;;11.17;1.90;;;10.50;99.90;;;;;;5012025;28;20038;-57
2023/03/31 03:11:55;;;;;;;16.87;2.40;;;10.50;99.90;;;;;;5012073;28;20128;-57
2023/03/31 03:15:03;;;;;;;12.97;2.37;;;10.50;99.90;;;;;;4995250;28;20038;-56
2023/03/31 03:17:40;;;;;;;13.07;3.07;;;10.50;99.90;;;;;;4935967;29;20413;-56
2023/03/31 03:20:08;;;;;;;13.67;2.07;;;10.40;99.90;;;;;;5004863;28;20038;-56
2023/03/31 03:22:36;;;;;;;13.93;2.43;;;10.40;99.90;;;;;;5012883;28;20101;-57
2023/03/31 03:25:02;;;;;;;14.57;2.57;;;10.40;99.90;;;;;;5012759;28;20034;-56
2023/03/31 03:27:28;;;;;;;14.90;2.50;;;10.40;99.90;;;;;;5012199;28;20025;-56
2023/03/31 03:29:55;;;;;;;11.57;2.33;;;10.40;99.90;;;;;;5012452;28;20033;-57
2023/03/31 03:32:20;;;;;;;22.27;2.40;;;10.40;99.90;;;;;;5012356;28;20030;-57
2023/03/31 03:34:46;;;;;;;16.07;2.30;;;10.30;99.90;;;;;;5012576;28;20364;-57
2023/03/31 03:37:12;;;;;;;15.77;2.80;;;10.30;99.90;;;;;;5012480;28;20113;-56
2023/03/31 03:39:37;;;;;;;13.27;2.27;;;10.40;99.90;;;;;;5012684;28;20037;-58
2023/03/31 03:42:03;;;;;;;9.50;2.10;;;10.40;99.90;;;;;;5012628;28;20072;-57
2023/03/31 03:44:29;;;;;;;14.27;2.87;;;10.40;99.90;;;;;;5012261;28;20475;-57
2023/03/31 03:46:55;;;;;;;14.63;2.33;;;10.40;99.90;;;;;;5012395;28;20317;-57
2023/03/31 03:49:21;;;;;;;12.90;2.37;;;10.40;99.90;;;;;;5010969;28;20076;-58
2023/03/31 03:51:47;;;;;;;14.43;2.30;;;10.50;99.90;;;;;;5009941;28;20030;-57
2023/03/31 03:54:12;;;;;;;18.13;2.60;;;10.40;99.90;;;;;;4999688;28;20125;-57
2023/03/31 03:56:38;;;;;;;13.87;2.30;;;10.50;99.90;;;;;;5010694;28;20475;-54
2023/03/31 03:59:04;;;;;;;16.77;2.30;;;10.50;99.90;;;;;;5010557;28;20026;-55
2023/03/31 04:01:30;;;;;;;15.57;3.00;;;10.40;99.90;;;;;;5009066;28;20065;-57
2023/03/31 04:03:56;;;;;;;20.23;3.67;;;10.40;99.90;;;;;;5009860;28;20045;-58
2023/03/31 04:06:21;;;;;;;18.07;3.03;;;10.40;99.90;;;;;;5010317;28;20038;-56
2023/03/31 04:08:47;;;;;;;17.93;3.73;;;10.30;99.90;;;;;;5010289;28;20026;-58
2023/03/31 04:11:17;;;;;;;17.57;3.60;;;10.30;99.90;;;;;;5010022;28;20049;-58
2023/03/31 04:13:44;;;;;;;16.20;3.10;;;10.30;99.90;;;;;;5009993;28;20509;-57
2023/03/31 04:16:10;;;;;;;12.07;2.53;;;10.30;99.90;;;;;;5010176;28;20095;-55
2023/03/31 04:18:41;;;;;;;16.47;3.00;;;10.30;99.90;;;;;;5009824;28;20506;-57
2023/03/31 04:21:11;;;;;;;15.67;2.90;;;10.20;99.90;;;;;;5010337;28;20498;-57
2023/03/31 04:23:41;;;;;;;19.83;3.00;;;10.30;99.90;;;;;;5009474;28;20451;-54
2023/03/31 04:26:08;;;;;;;18.20;2.83;;;10.30;99.90;;;;;;5010510;28;20065;-56
2023/03/31 04:28:35;;;;;;;9.57;2.43;;;10.30;99.90;;;;;;5009830;28;20030;-55
2023/03/31 04:31:05;;;;;;;11.07;2.40;;;10.30;99.90;;;;;;5010560;28;20406;-56
2023/03/31 04:33:32;;;;;;;14.77;2.25;;;10.30;99.90;;;;;;5008995;28;20470;-54
2023/03/31 04:36:05;;;;;;;16.00;2.63;;;10.30;99.90;;;;;;5008234;28;20025;-57
2023/03/31 04:38:33;;;;;;;11.80;2.00;;;10.40;99.90;;;;;;5007805;28;20394;-56
2023/03/31 04:40:59;;;;;;;11.67;2.37;;;10.40;99.90;;;;;;5008609;28;20025;-56
2023/03/31 04:43:25;;;;;;;11.70;2.17;;;10.40;99.90;;;;;;5008615;28;20021;-57
2023/03/31 04:45:50;;;;;;;13.63;2.63;;;10.40;99.90;;;;;;5008925;28;20022;-57
2023/03/31 04:48:16;;;;;;;9.90;1.97;;;10.40;99.90;;;;;;5008784;28;20121;-56
2023/03/31 04:50:42;;;;;;;23.03;6.23;;;10.40;99.90;;;;;;5009747;28;20033;-55
2023/03/31 04:53:08;;;;;;;18.03;6.40;;;10.30;99.90;;;;;;5008919;28;20100;-57
2023/03/31 04:55:34;;;;;;;10.57;2.40;;;10.30;99.90;;;;;;5008856;28;20569;-56
2023/03/31 04:58:00;;;;;;;12.30;2.70;;;10.30;99.90;;;;;;5008359;28;20125;-55
2023/03/31 05:00:27;;;;;;;9.10;2.03;;;10.30;99.90;;;;;;5009681;28;20125;-55
2023/03/31 05:02:53;;;;;;;12.00;2.00;;;10.20;99.90;;;;;;5009641;28;20242;-55
2023/03/31 05:05:20;;;;;;;12.97;2.40;;;10.20;99.90;;;;;;5009228;28;20029;-56
2023/03/31 05:07:46;;;;;;;11.63;2.77;;;10.20;99.90;;;;;;5007656;28;20026;-56
2023/03/31 05:10:11;;;;;;;9.30;1.90;;;10.10;99.90;;;;;;5008779;28;20056;-57
2023/03/31 05:12:37;;;;;;;10.80;1.87;;;10.10;99.90;;;;;;5009806;28;20398;-58
2023/03/31 05:15:06;;;;;;;5.47;1.23;;;10.10;99.90;;;;;;5009331;28;20033;-58
2023/03/31 05:17:33;;;;;;;9.52;2.10;;;10.10;99.90;;;;;;5009401;28;20038;-57
2023/03/31 05:19:59;;;;;;;8.73;1.93;;;10.10;99.90;;;;;;5009490;28;20037;-56
2023/03/31 05:22:26;;;;;;;14.83;3.40;;;10.10;99.90;;;;;;5008800;28;20553;-56
2023/03/31 05:24:52;;;;;;;11.47;3.13;;;10.00;99.90;;;;;;5009407;28;20048;-57
2023/03/31 05:27:20;;;;;;;8.87;1.90;;;10.10;99.90;;;;;;5008768;28;20120;-59
2023/03/31 05:29:46;;;;;;;8.50;2.00;;;10.00;99.90;;;;;;5009721;28;20117;-56
2023/03/31 05:32:11;;;;;;;9.53;2.00;;;10.10;99.90;;;;;;5009600;28;20129;-56
2023/03/31 05:34:37;;;;;;;7.40;2.40;;;10.10;99.90;;;;;;5008913;28;20122;-56
2023/03/31 05:37:03;;;;;;;8.67;2.30;;;10.20;99.90;;;;;;5009380;28;20034;-54
2023/03/31 05:39:31;;;;;;;9.43;2.47;;;10.20;99.90;;;;;;5008606;28;20065;-53
2023/03/31 05:42:00;;;;;;;6.77;1.80;;;10.20;99.90;;;;;;5009556;28;20624;-55
2023/03/31 05:44:26;;;;;;;9.50;2.42;;;10.30;99.90;;;;;;5009457;28;20064;-59
2023/03/31 05:46:55;;;;;;;9.53;1.50;;;10.30;99.90;;;;;;5009890;28;20812;-59
2023/03/31 05:49:20;;;;;;;8.73;1.70;;;10.30;99.90;;;;;;5009325;28;20040;-58
2023/03/31 05:51:46;;;;;;;5.83;1.67;;;10.30;99.90;;;;;;5009728;28;20459;-58
2023/03/31 05:54:13;;;;;;;6.33;1.60;;;10.30;99.90;;;;;;5008514;28;20040;-58
2023/03/31 05:56:39;;;;;;;7.70;1.80;;;10.40;99.90;;;;;;5009683;28;20050;-59
2023/03/31 05:59:05;;;;;;;8.57;1.83;;;10.40;99.90;;;;;;5009312;28;20482;-58
2023/03/31 06:01:31;;;;;;;8.70;1.70;;;10.40;99.90;;;;;;5009759;28;20079;-61
2023/03/31 06:03:56;;;;;;;6.60;1.33;;;10.50;99.90;;;;;;5007725;28;20121;-59
2023/03/31 06:06:23;;;;;;;8.13;1.50;;;10.50;99.90;;;;;;5008453;28;20553;-59
2023/03/31 06:08:49;;;;;;;9.53;1.77;;;10.50;99.90;;;;;;5008639;28;20125;-59
2023/03/31 06:11:18;;;;;;;6.83;1.60;;;10.50;99.90;;;;;;5009189;28;20108;-59
2023/03/31 06:13:44;;;;;;;8.13;1.52;;;10.50;99.90;;;;;;5009025;28;20064;-59
2023/03/31 06:16:12;;;;;;;5.67;1.70;;;10.50;99.90;;;;;;5009185;28;20123;-59
2023/03/31 06:18:38;;;;;;;17.53;9.53;;;10.60;99.90;;;;;;5008504;28;20490;-59
2023/03/31 06:21:05;;;;;;;6.73;2.17;;;10.50;99.90;;;;;;5008702;28;20390;-59
2023/03/31 06:23:33;;;;;;;8.00;1.67;;;10.40;99.90;;;;;;5008155;28;20454;-59
2023/03/31 06:26:05;;;;;;;9.07;2.10;;;10.40;99.90;;;;;;5009153;28;20030;-59
2023/03/31 06:28:31;;;;;;;8.80;1.83;;;10.30;99.90;;;;;;5009056;28;20479;-59
2023/03/31 06:31:12;;;;;;;6.57;1.80;;;10.30;99.90;;;;;;5009160;28;20038;-59
2023/03/31 06:33:40;;;;;;;9.57;2.00;;;10.20;99.90;;;;;;5008762;28;20044;-59
2023/03/31 06:36:07;;;;;;;10.53;2.67;;;10.10;99.90;;;;;;5008647;28;20117;-58
2023/03/31 06:38:34;;;;;;;7.00;2.10;;;10.10;99.90;;;;;;5009955;28;20049;-59
2023/03/31 06:41:01;;;;;;;9.63;2.10;;;10.10;99.90;;;;;;5011788;28;20125;-59
2023/03/31 06:43:26;;;;;;;8.67;2.27;;;10.10;99.90;;;;;;5012211;28;20092;-58
2023/03/31 06:45:53;;;;;;;8.30;2.27;;;10.00;99.90;;;;;;5012607;28;20030;-58
2023/03/31 06:48:19;;;;;;;11.13;2.40;;;10.00;99.90;;;;;;5012361;28;20125;-59
2023/03/31 06:50:45;;;;;;;39.67;21.57;;;10.00;99.90;;;;;;5027426;28;20118;-59
2023/03/31 06:53:10;;;;;;;9.07;4.00;;;10.00;99.90;;;;;;5011369;28;20022;-59
2023/03/31 06:55:36;;;;;;;6.07;2.40;;;10.00;99.90;;;;;;5012543;28;20416;-59
2023/03/31 06:58:03;;;;;;;9.47;2.30;;;10.00;99.90;;;;;;5011798;28;20022;-59
2023/03/31 07:00:29;;;;;;;10.20;2.70;;;10.00;99.90;;;;;;5011839;28;20049;-60
2023/03/31 07:02:55;;;;;;;8.30;2.13;;;10.00;99.90;;;;;;5011968;28;20034;-60
2023/03/31 07:05:27;;;;;;;9.17;3.07;;;10.00;99.90;;;;;;5036631;22;20199;-51
2023/03/31 07:07:54;;;;;;;9.63;2.17;;;10.00;99.90;;;;;;5028740;28;20412;-50
2023/03/31 07:10:21;;;;;;;7.77;2.40;;;10.00;99.90;;;;;;5031459;28;20044;-49
2023/03/31 07:12:47;;;;;;;9.10;2.43;;;9.90;99.90;;;;;;5030950;28;20378;-51
2023/03/31 07:15:13;;;;;;;7.10;2.47;;;10.00;99.90;;;;;;5031095;28;20109;-49
2023/03/31 07:17:42;;;;;;;10.60;2.60;;;9.90;99.90;;;;;;5029288;28;20506;-49
2023/03/31 07:20:16;;;;;;;10.38;2.30;;;9.90;99.90;;;;;;5030830;28;20043;-51
2023/03/31 07:22:43;;;;;;;10.37;2.87;;;9.90;99.90;;;;;;5028882;28;20077;-49
2023/03/31 07:25:10;;;;;;;10.77;2.40;;;10.00;99.90;;;;;;5030646;28;20029;-51
2023/03/31 07:27:36;;;;;;;10.30;2.63;;;9.90;99.90;;;;;;5030585;28;20533;-47
2023/03/31 07:30:05;;;;;;;8.23;2.20;;;10.00;99.90;;;;;;5031275;28;20139;-48
2023/03/31 07:32:32;;;;;;;9.07;2.87;;;9.90;99.90;;;;;;5030997;28;20095;-51
2023/03/31 07:34:58;;;;;;;6.40;2.20;;;9.90;99.90;;;;;;5030737;28;20497;-51
2023/03/31 07:37:23;;;;;;;10.23;2.63;;;9.90;99.90;;;;;;5029751;28;20041;-50
2023/03/31 07:39:49;;;;;;;8.77;2.60;;;9.90;99.90;;;;;;5030484;28;20034;-50
2023/03/31 07:42:15;;;;;;;12.57;3.47;;;9.90;99.90;;;;;;5030972;28;20112;-48
2023/03/31 07:44:41;;;;;;;10.93;2.70;;;9.80;99.90;;;;;;5030462;28;20030;-49
2023/03/31 07:47:06;;;;;;;7.80;2.40;;;9.80;99.90;;;;;;5028914;28;20048;-48
2023/03/31 07:49:34;;;;;;;6.63;2.20;;;9.80;99.90;;;;;;5027843;28;20041;-48
2023/03/31 07:52:00;;;;;;;9.47;2.40;;;9.90;99.90;;;;;;5030919;28;20108;-49
2023/03/31 07:54:26;;;;;;;10.73;2.63;;;9.90;99.90;;;;;;5029613;28;20074;-47
2023/03/31 07:56:52;;;;;;;9.93;2.97;;;9.90;99.90;;;;;;5030401;28;20060;-50
2023/03/31 07:59:18;;;;;;;12.27;2.87;;;9.90;99.90;;;;;;5030258;28;20112;-48
2023/03/31 08:01:44;;;;;;;9.50;2.67;;;9.90;99.90;;;;;;5030678;28;20026;-52
2023/03/31 08:04:11;;;;;;;11.27;2.80;;;9.90;99.90;;;;;;5029257;28;20029;-53
2023/03/31 08:06:37;;;;;;;11.87;3.17;;;9.90;99.90;;;;;;5030241;28;20489;-50
2023/03/31 08:09:05;;;;;;;10.33;2.93;;;9.80;99.90;;;;;;5029226;28;20033;-51
2023/03/31 08:11:31;;;;;;;9.07;2.90;;;9.90;99.90;;;;;;5030518;28;20109;-49
2023/03/31 08:13:57;;;;;;;13.60;2.90;;;9.90;99.90;;;;;;5028393;28;20128;-49
2023/03/31 08:16:23;;;;;;;9.93;2.90;;;9.80;99.90;;;;;;5029956;28;20115;-52
2023/03/31 08:18:49;;;;;;;10.30;3.20;;;9.80;99.90;;;;;;5029838;28;20033;-52
2023/03/31 08:21:15;;;;;;;8.90;2.97;;;9.80;99.90;;;;;;5029733;28;20029;-54
2023/03/31 08:23:41;;;;;;;14.80;2.90;;;9.80;99.90;;;;;;5029106;28;20397;-50
2023/03/31 08:26:09;;;;;;;11.20;2.60;;;9.80;99.90;;;;;;5030170;28;20112;-51
2023/03/31 08:28:35;;;;;;;11.03;2.83;;;9.80;99.90;;;;;;5029506;28;20033;-50
2023/03/31 08:31:06;;;;;;;8.27;2.03;;;9.90;99.90;;;;;;5030067;28;20432;-49
2023/03/31 08:33:32;;;;;;;8.43;1.97;;;10.00;99.90;;;;;;5029760;28;20041;-50
2023/03/31 08:36:06;;;;;;;9.23;2.40;;;10.10;99.90;;;;;;5029367;28;20463;-53
2023/03/31 08:38:32;;;;;;;14.23;2.50;;;10.20;99.90;;;;;;5028601;28;20030;-52
2023/03/31 08:41:01;;;;;;;7.33;2.73;;;10.30;99.90;;;;;;5029788;28;20047;-51
2023/03/31 08:43:32;;;;;;;;;;;10.40;99.90;;;;;;5030041;28;20021;-49
2023/03/31 08:45:58;;;;;;;11.37;2.70;;;10.50;99.90;;;;;;5029289;28;19952;-50
2023/03/31 08:48:26;;;;;;;10.63;3.13;;;10.70;99.90;;;;;;5028958;28;20493;-47
2023/03/31 08:51:04;;;;;;;15.50;3.37;;;10.70;99.90;;;;;;5030484;28;20130;-51
2023/03/31 08:53:37;;;;;;;10.38;2.55;;;10.80;99.90;;;;;;5032711;28;20021;-51
2023/03/31 08:56:08;;;;;;;10.03;2.60;;;10.90;99.90;;;;;;5027889;28;20112;-47
2023/03/31 08:58:42;;;;;;;12.27;2.60;;;11.00;99.90;;;;;;5030434;28;20033;-48
2023/03/31 09:01:32;;;;;;;14.00;2.90;;;11.00;99.90;;;;;;5027862;28;20033;-52
2023/03/31 09:04:21;;;;;;;12.67;2.47;;;11.10;99.90;;;;;;5042377;28;20339;-53
2023/03/31 09:07:20;;;;;;;10.70;2.43;;;11.20;99.90;;;;;;5048922;28;20224;-50
2023/03/31 09:10:07;;;;;;;9.63;2.13;;;11.20;99.90;;;;;;5049352;28;20340;-50
2023/03/31 09:12:51;;;;;;;12.37;2.13;;;11.20;99.90;;;;;;5049214;28;20048;-51
2023/03/31 09:15:26;;;;;;;15.97;2.80;;;11.20;99.90;;;;;;5048927;28;20039;-52
2023/03/31 09:17:54;;;;;;;10.07;2.23;;;11.20;99.90;;;;;;5048495;28;20381;-53
2023/03/31 09:20:39;;;;;;;12.63;2.53;;;11.30;99.90;;;;;;5048371;28;20033;-54
2023/03/31 09:23:35;;;;;;;13.57;2.37;;;11.30;99.90;;;;;;5048054;28;20427;-51
2023/03/31 09:26:03;;;;;;;18.90;2.70;;;11.30;99.90;;;;;;5033245;28;20037;-52
2023/03/31 09:28:39;;;;;;;15.00;2.60;;;11.30;99.90;;;;;;5034197;28;20133;-50
2023/03/31 09:31:13;;;;;;;14.53;2.77;;;11.30;99.90;;;;;;5036620;28;20390;-50
2023/03/31 09:33:45;;;;;;;15.30;2.47;;;11.30;99.90;;;;;;5017462;28;20430;-50
2023/03/31 09:36:19;;;;;;;14.70;2.80;;;11.40;99.90;;;;;;5021877;28;20030;-50
2023/03/31 09:38:46;;;;;;;13.50;3.03;;;11.40;99.90;;;;;;5026818;28;21773;-50
2023/03/31 09:41:15;;;;;;;18.30;2.40;;;11.60;99.90;;;;;;5027485;28;20033;-48
2023/03/31 09:43:42;;;;;;;8.70;2.05;;;11.70;99.90;;;;;;5027611;28;20112;-50
2023/03/31 09:46:25;;;;;;;11.77;2.47;;;11.80;99.90;;;;;;5028548;28;20072;-49
2023/03/31 09:49:09;;;;;;;13.63;2.60;;;11.90;99.90;;;;;;5028289;28;20523;-50
2023/03/31 09:51:40;;;;;;;14.63;2.80;;;12.10;99.90;;;;;;5028523;28;20121;-51
2023/03/31 09:54:24;;;;;;;13.10;2.55;;;12.20;99.90;;;;;;5027737;28;20033;-50
2023/03/31 09:56:53;;;;;;;16.70;2.50;;;12.40;99.90;;;;;;5028655;28;20109;-53
2023/03/31 09:59:21;;;;;;;17.10;2.75;;;12.70;99.90;;;;;;5028086;28;20117;-53
2023/03/31 10:01:52;;;;;;;14.10;2.80;;;13.00;99.90;;;;;;5028671;28;20029;-53
2023/03/31 10:04:20;;;;;;;13.73;2.17;;;13.50;99.90;;;;;;5027804;28;20025;-49
2023/03/31 10:06:47;;;;;;;14.82;3.03;;;13.80;99.90;;;;;;5028227;28;20047;-52
2023/03/31 10:09:15;;;;;;;15.25;2.53;;;13.80;99.90;;;;;;5026997;28;20025;-52
2023/03/31 10:11:56;;;;;;;13.20;2.90;;;13.60;99.90;;;;;;5045153;28;20029;-50
2023/03/31 10:14:42;;;;;;;13.82;2.20;;;13.50;99.90;;;;;;5031733;28;20042;-51
2023/03/31 10:17:16;;;;;;;12.60;2.85;;;13.20;99.90;;;;;;5031054;28;20040;-53
2023/03/31 10:19:56;;;;;;;14.02;3.00;;;12.70;99.90;;;;;;5034067;28;20032;-52
2023/03/31 10:22:22;;;;;;;13.30;3.65;;;12.50;99.90;;;;;;5036168;28;20079;-51
2023/03/31 10:24:50;;;;;;;14.38;3.28;;;12.30;99.90;;;;;;5038671;28;20029;-52
2023/03/31 10:27:27;;;;;;;13.15;2.95;;;12.20;99.90;;;;;;5036198;28;20029;-53
2023/03/31 10:30:03;;;;;;;16.52;2.90;;;12.30;99.90;;;;;;5032709;28;20037;-50
2023/03/31 10:32:31;;;;;;;14.57;2.53;;;12.40;99.90;;;;;;5044904;28;20496;-50
2023/03/31 10:35:02;;;;;;;13.00;2.65;;;12.50;99.90;;;;;;5031252;28;20128;-51
2023/03/31 10:37:30;;;;;;;14.73;2.92;;;12.70;99.90;;;;;;5030686;28;20116;-52
2023/03/31 10:40:06;;;;;;;12.70;2.28;;;12.80;99.90;;;;;;5030351;28;20029;-48
2023/03/31 10:42:32;;;;;;;16.13;3.67;;;13.00;99.90;;;;;;5031703;28;20120;-49
2023/03/31 10:45:26;;;;;;;24.83;7.32;;;13.20;99.90;;;;;;5031632;28;20034;-51
2023/03/31 10:47:54;;;;;;;19.52;3.17;;;13.50;99.90;;;;;;5030830;28;20555;-51
2023/03/31 10:50:27;;;;;;;20.55;6.15;;;13.70;99.90;;;;;;5031554;28;20025;-48
2023/03/31 10:53:02;;;;;;;13.50;3.30;;;13.90;99.90;;;;;;5030688;28;20045;-51
2023/03/31 10:55:38;;;;;;;15.98;2.88;;;13.80;99.90;;;;;;5037401;28;20116;-51
2023/03/31 10:58:26;;;;;;;14.95;3.25;;;13.70;99.90;;;;;;5030843;28;20486;-46
2023/03/31 11:01:18;;;;;;;22.30;3.63;;;13.60;99.90;;;;;;5036520;28;20033;-46
2023/03/31 11:04:22;;;;;;;19.67;3.63;;;13.40;99.90;;;;;;5031509;28;20142;-51
2023/03/31 11:07:23;;;;;;;15.15;2.72;;;13.10;99.90;;;;;;5034636;28;20030;-48
2023/03/31 11:10:16;;;;;;;12.32;2.28;;;12.50;99.90;;;;;;5033521;28;20170;-49
2023/03/31 11:12:48;;;;;;;10.77;2.45;;;12.40;99.90;;;;;;5033143;28;20596;-52
2023/03/31 11:15:20;;;;;;;7.82;1.58;;;12.40;99.90;;;;;;5033331;28;20034;-52
2023/03/31 11:18:10;;;;;;;8.38;1.48;;;12.50;99.90;;;;;;5036070;28;20079;-52
2023/03/31 11:20:48;;;;;;;5.22;1.27;;;12.60;99.90;;;;;;5046620;28;20058;-53
2023/03/31 11:23:56;;;;;;;10.43;1.40;;;12.60;99.90;;;;;;5047542;28;20029;-52
2023/03/31 11:26:50;;;;;;;3.58;1.00;;;12.60;99.90;;;;;;5030286;28;20052;-52
2023/03/31 11:29:49;;;;;;;4.55;1.05;;;12.70;99.90;;;;;;5029229;28;20035;-49
2023/03/31 11:32:42;;;;;;;8.65;1.20;;;12.80;99.90;;;;;;5030923;28;20490;-50
2023/03/31 11:35:42;;;;;;;3.88;0.95;;;12.90;99.90;;;;;;5030288;28;20485;-49
2023/03/31 11:38:17;;;;;;;5.15;1.45;;;12.90;99.90;;;;;;5032818;28;20029;-53
2023/03/31 11:41:09;;;;;;;5.38;1.35;;;13.00;99.90;;;;;;5037946;28;20545;-48
2023/03/31 11:43:43;;;;;;;7.40;1.80;;;13.00;99.90;;;;;;5037713;28;20073;-50
2023/03/31 11:46:22;;;;;;;10.55;1.80;;;13.00;99.90;;;;;;5036873;28;20032;-51
2023/03/31 11:48:58;;;;;;;8.27;1.80;;;13.10;99.90;;;;;;5029451;28;20536;-48
2023/03/31 11:52:01;;;;;;;6.63;1.48;;;13.00;99.90;;;;;;5030545;28;20030;-48
2023/03/31 11:54:58;;;;;;;9.82;1.80;;;13.00;99.90;;;;;;5019966;28;20038;-47
2023/03/31 11:57:27;;;;;;;7.75;2.13;;;13.10;99.90;;;;;;5040143;28;20089;-48
2023/03/31 12:00:16;;;;;;;8.13;1.77;;;13.10;99.90;;;;;;5033730;28;20067;-51
2023/03/31 12:02:49;;;;;;;9.13;1.58;;;13.30;99.90;;;;;;5031675;28;20347;-47
2023/03/31 12:05:16;;;;;;;11.65;2.28;;;13.60;99.90;;;;;;5035526;28;20032;-47
2023/03/31 12:07:49;;;;;;;12.32;2.00;;;13.80;99.90;;;;;;5037582;28;20025;-47
2023/03/31 12:10:28;;;;;;;6.95;1.75;;;13.80;99.90;;;;;;5032191;28;20029;-53
2023/03/31 12:13:04;;;;;;;11.68;2.55;;;13.70;99.90;;;;;;5036766;28;20332;-48
2023/03/31 12:15:50;;;;;;;13.10;1.83;;;13.60;99.90;;;;;;5035036;28;20108;-50
2023/03/31 12:18:23;;;;;;;13.00;2.83;;;13.60;99.90;;;;;;5028880;28;20120;-53
2023/03/31 12:20:56;;;;;;;10.18;2.00;;;13.50;99.90;;;;;;5029224;28;20406;-51
2023/03/31 12:23:26;;;;;;;10.13;1.73;;;13.40;99.90;;;;;;5028823;28;20095;-50
2023/03/31 12:25:55;;;;;;;7.82;1.83;;;13.30;99.90;;;;;;5029483;28;20406;-53
2023/03/31 12:28:21;;;;;;;20.83;10.85;;;13.20;99.90;;;;;;5028852;28;20025;-51
2023/03/31 12:30:48;;;;;;;15.38;5.50;;;13.10;99.90;;;;;;5029365;28;20362;-51
2023/03/31 12:33:30;;;;;;;14.52;6.47;;;13.10;99.90;;;;;;5029472;28;20512;-51
2023/03/31 12:36:14;;;;;;;10.30;2.80;;;13.10;99.90;;;;;;5028980;28;20045;-49
2023/03/31 12:39:05;;;;;;;12.65;2.58;;;13.20;99.90;;;;;;5028283;28;20053;-50
2023/03/31 12:41:45;;;;;;;12.55;2.63;;;13.30;99.90;;;;;;5029446;28;20029;-52
2023/03/31 12:44:26;;;;;;;14.20;3.00;;;13.50;99.90;;;;;;5028631;28;20354;-50
2023/03/31 12:47:18;;;;;;;15.45;4.22;;;13.70;99.90;;;;;;5035518;28;20033;-53
2023/03/31 12:49:50;;;;;;;17.02;3.20;;;13.90;99.90;;;;;;5049058;28;20028;-51
2023/03/31 12:52:18;;;;;;;12.23;3.00;;;14.20;99.90;;;;;;5049067;28;20560;-53
2023/03/31 12:55:03;;;;;;;12.55;2.55;;;14.40;99.90;;;;;;5049029;28;20036;-51
2023/03/31 12:57:29;;;;;;;10.77;2.92;;;14.40;99.90;;;;;;5048732;28;20489;-51
2023/03/31 13:00:10;;;;;;;15.80;2.55;;;14.60;99.90;;;;;;5048380;28;20091;-49
2023/03/31 13:02:36;;;;;;;10.63;2.10;;;14.70;99.90;;;;;;5049073;28;20116;-49
2023/03/31 13:05:37;;;;;;;14.00;2.53;;;14.70;99.90;;;;;;5067359;22;20123;-59
2023/03/31 13:08:09;;;;;;;13.27;2.47;;;14.80;99.90;;;;;;5065377;28;20170;-58
2023/03/31 13:10:57;;;;;;;11.88;2.85;;;14.70;99.90;;;;;;5068774;28;20040;-59